Time,TemperatureF,DewpointF,PressureIn,WindDirection,WindDirectionDegrees,WindSpeedMPH,WindSpeedGustMPH,Humidity,HourlyPrecipIn,Conditions,Clouds,dailyrainin,SoftwareType,DateUTC
2013-07-01 06:06:00,62.7,55.7,29.96,East,88,1.0,2.0,78,0.00,,,0.00,Wunderground v.1.15,2013-07-01 11:06:00,
2013-07-01 06:10:00,62.8,55.5,29.96,East,88,1.0,1.0,77,0.00,,,0.00,Wunderground v.1.15,2013-07-01 11:10:00,
2013-07-01 06:15:00,63.0,54.6,29.96,NE,51,1.0,2.0,74,0.00,,,0.00,Wunderground v.1.15,2013-07-01 11:15:00,
2013-07-01 06:20:00,63.2,54.0,29.95,East,82,1.0,1.0,72,0.00,,,0.00,Wunderground v.1.15,2013-07-01 11:20:00,
2013-07-01 06:25:00,63.3,54.1,29.96,ENE,78,1.0,1.0,72,0.00,,,0.00,Wunderground v.1.15,2013-07-01 11:25:00,
2013-07-01 06:35:00,63.0,54.2,29.96,ENE,64,1.0,2.0,73,0.00,,,0.00,Wunderground v.1.15,2013-07-01 11:35:00,
2013-07-01 06:40:00,62.7,53.9,29.96,East,82,1.0,1.0,73,0.00,,,0.00,Wunderground v.1.15,2013-07-01 11:40:00,
2013-07-01 06:45:00,62.7,54.3,29.96,East,82,1.0,2.0,74,0.00,,,0.00,Wunderground v.1.15,2013-07-01 11:45:00,
2013-07-01 06:50:00,62.7,53.9,29.96,East,88,1.0,1.0,73,0.00,,,0.00,Wunderground v.1.15,2013-07-01 11:50:00,
2013-07-01 06:55:00,62.9,54.1,29.96,SE,143,1.0,1.0,73,0.00,,,0.00,Wunderground v.1.15,2013-07-01 11:55:00,
2013-07-01 07:00:00,63.3,54.9,29.96,East,94,1.0,6.0,74,0.00,,,0.00,Wunderground v.1.15,2013-07-01 12:00:00,
2013-07-01 07:05:00,63.6,55.2,29.97,East,85,2.0,6.0,74,0.00,,,0.00,Wunderground v.1.15,2013-07-01 12:05:00,
2013-07-01 07:10:00,64.0,55.2,29.96,ENE,73,2.0,2.0,73,0.00,,,0.00,Wunderground v.1.15,2013-07-01 12:10:00,
2013-07-01 07:15:00,64.0,55.5,29.96,ENE,71,2.0,2.0,74,0.00,,,0.00,Wunderground v.1.15,2013-07-01 12:15:00,
2013-07-01 07:20:00,63.9,55.8,29.97,East,79,2.0,2.0,75,0.00,,,0.00,Wunderground v.1.15,2013-07-01 12:20:00,
2013-07-01 07:25:00,63.8,56.1,29.97,ENE,72,2.0,2.0,76,0.00,,,0.00,Wunderground v.1.15,2013-07-01 12:25:00,
2013-07-01 07:30:00,63.9,55.8,29.97,ENE,71,2.0,2.0,75,0.00,,,0.00,Wunderground v.1.15,2013-07-01 12:30:00,
2013-07-01 07:35:00,64.2,55.4,29.97,East,83,2.0,2.0,73,0.00,,,0.00,Wunderground v.1.15,2013-07-01 12:35:00,
2013-07-01 07:40:00,64.6,55.7,29.97,East,92,3.0,3.0,73,0.00,,,0.00,Wunderground v.1.15,2013-07-01 12:40:00,
2013-07-01 07:50:00,65.4,55.0,29.97,East,96,3.0,3.0,69,0.00,,,0.00,Wunderground v.1.15,2013-07-01 12:50:00,
2013-07-01 07:55:00,65.5,55.5,29.98,East,83,3.0,3.0,70,0.00,,,0.00,Wunderground v.1.15,2013-07-01 12:55:00,
2013-07-01 08:00:00,65.9,55.4,29.98,ENE,67,3.0,3.0,69,0.00,,,0.00,Wunderground v.1.15,2013-07-01 13:00:00,
2013-07-01 08:05:00,66.6,56.1,29.97,ENE,58,3.0,7.0,69,0.00,,,0.00,Wunderground v.1.15,2013-07-01 13:05:00,
2013-07-01 08:10:00,67.3,56.0,29.98,SE,145,3.0,3.0,67,0.00,,,0.00,Wunderground v.1.15,2013-07-01 13:10:00,
2013-07-01 08:15:00,67.7,55.9,29.98,ENE,61,4.0,4.0,66,0.00,,,0.00,Wunderground v.1.15,2013-07-01 13:15:00,
2013-07-01 08:20:00,67.8,56.4,29.98,ESE,117,4.0,7.0,67,0.00,,,0.00,Wunderground v.1.15,2013-07-01 13:20:00,
2013-07-01 08:25:00,67.9,56.5,29.98,ENE,71,4.0,7.0,67,0.00,,,0.00,Wunderground v.1.15,2013-07-01 13:25:00,
2013-07-01 08:30:00,67.9,56.9,29.98,ENE,72,3.0,3.0,68,0.00,,,0.00,Wunderground v.1.15,2013-07-01 13:30:00,
2013-07-01 08:35:00,68.2,57.6,29.98,ESE,119,3.0,7.0,69,0.00,,,0.00,Wunderground v.1.15,2013-07-01 13:35:00,
2013-07-01 08:40:00,68.5,57.5,29.98,ENE,64,3.0,4.0,68,0.00,,,0.00,Wunderground v.1.15,2013-07-01 13:40:00,
2013-07-01 08:45:00,68.8,57.8,29.98,ENE,69,4.0,4.0,68,0.00,,,0.00,Wunderground v.1.15,2013-07-01 13:45:00,
2013-07-01 08:50:00,69.1,58.5,29.98,ENE,69,4.0,5.0,69,0.00,,,0.00,Wunderground v.1.15,2013-07-01 13:50:00,
2013-07-01 08:55:00,69.1,57.7,29.98,ENE,58,4.0,5.0,67,0.00,,,0.00,Wunderground v.1.15,2013-07-01 13:55:00,
2013-07-01 09:05:00,69.6,58.6,29.98,ESE,113,4.0,8.0,68,0.00,,,0.00,Wunderground v.1.15,2013-07-01 14:05:00,
2013-07-01 09:10:00,69.8,58.3,29.98,East,100,4.0,4.0,67,0.00,,,0.00,Wunderground v.1.15,2013-07-01 14:10:00,
2013-07-01 09:15:00,70.0,58.5,29.98,ENE,71,4.0,4.0,67,0.00,,,0.00,Wunderground v.1.15,2013-07-01 14:15:00,
2013-07-01 09:20:00,70.3,59.2,29.98,East,88,3.0,6.0,68,0.00,,,0.00,Wunderground v.1.15,2013-07-01 14:20:00,
2013-07-01 09:25:00,70.2,58.7,29.98,East,82,3.0,6.0,67,0.00,,,0.00,Wunderground v.1.15,2013-07-01 14:25:00,
2013-07-01 09:30:00,69.9,58.4,29.99,NE,56,4.0,4.0,67,0.00,,,0.00,Wunderground v.1.15,2013-07-01 14:30:00,
2013-07-01 09:35:00,70.0,58.5,29.98,East,100,4.0,4.0,67,0.00,,,0.00,Wunderground v.1.15,2013-07-01 14:35:00,
2013-07-01 09:40:00,70.1,58.6,29.98,East,87,4.0,7.0,67,0.00,,,0.00,Wunderground v.1.15,2013-07-01 14:40:00,
2013-07-01 09:45:00,70.4,58.9,29.98,ENE,75,4.0,7.0,67,0.00,,,0.00,Wunderground v.1.15,2013-07-01 14:45:00,
2013-07-01 09:50:00,70.8,58.9,29.98,East,83,4.0,4.0,66,0.00,,,0.00,Wunderground v.1.15,2013-07-01 14:50:00,
2013-07-01 10:05:00,71.3,59.8,29.98,East,87,4.0,13.0,67,0.00,,,0.00,Wunderground v.1.15,2013-07-01 15:05:00,
2013-07-01 10:10:00,71.9,59.5,29.98,NNW,330,3.0,13.0,65,0.00,,,0.00,Wunderground v.1.15,2013-07-01 15:10:00,
2013-07-01 10:15:00,72.2,59.8,29.98,East,94,2.0,13.0,65,0.00,,,0.00,Wunderground v.1.15,2013-07-01 15:15:00,
2013-07-01 10:20:00,72.2,59.3,29.98,NE,48,3.0,13.0,64,0.00,,,0.00,Wunderground v.1.15,2013-07-01 15:20:00,
2013-07-01 10:25:00,72.6,60.2,29.98,ENE,71,3.0,13.0,65,0.00,,,0.00,Wunderground v.1.15,2013-07-01 15:25:00,
2013-07-01 10:30:00,73.0,60.1,29.98,ENE,57,2.0,13.0,64,0.00,,,0.00,Wunderground v.1.15,2013-07-01 15:30:00,
2013-07-01 10:35:00,73.2,60.7,29.98,NE,48,3.0,3.0,65,0.00,,,0.00,Wunderground v.1.15,2013-07-01 15:35:00,
2013-07-01 10:40:00,73.5,60.6,29.98,ENE,67,3.0,13.0,64,0.00,,,0.00,Wunderground v.1.15,2013-07-01 15:40:00,
2013-07-01 10:45:00,73.6,60.7,29.98,East,96,3.0,3.0,64,0.00,,,0.00,Wunderground v.1.15,2013-07-01 15:45:00,
2013-07-01 10:50:00,73.6,60.7,29.98,East,84,3.0,13.0,64,0.00,,,0.00,Wunderground v.1.15,2013-07-01 15:50:00,
2013-07-01 11:00:00,74.1,61.1,29.98,NE,46,3.0,3.0,64,0.00,,,0.00,Wunderground v.1.15,2013-07-01 16:00:00,
2013-07-01 11:05:00,74.3,61.8,29.98,East,96,2.0,3.0,65,0.00,,,0.00,Wunderground v.1.15,2013-07-01 16:05:00,
2013-07-01 11:10:00,74.5,62.0,29.98,North,5,2.0,3.0,65,0.00,,,0.00,Wunderground v.1.15,2013-07-01 16:10:00,
2013-07-01 11:15:00,74.7,62.6,29.97,NE,53,3.0,3.0,66,0.00,,,0.00,Wunderground v.1.15,2013-07-01 16:15:00,
2013-07-01 11:20:00,75.0,62.4,29.97,East,88,3.0,6.0,65,0.00,,,0.00,Wunderground v.1.15,2013-07-01 16:20:00,
2013-07-01 11:25:00,75.1,62.5,29.97,NE,54,3.0,6.0,65,0.00,,,0.00,Wunderground v.1.15,2013-07-01 16:25:00,
2013-07-01 11:30:00,75.1,62.5,29.97,East,90,3.0,5.0,65,0.00,,,0.00,Wunderground v.1.15,2013-07-01 16:30:00,
2013-07-01 11:40:00,75.2,62.2,29.97,ENE,76,4.0,4.0,64,0.00,,,0.00,Wunderground v.1.15,2013-07-01 16:40:00,
2013-07-01 11:50:00,75.2,62.6,29.97,ENE,78,4.0,4.0,65,0.00,,,0.00,Wunderground v.1.15,2013-07-01 16:50:00,
2013-07-01 11:55:00,75.3,62.7,29.97,ENE,74,3.0,4.0,65,0.00,,,0.00,Wunderground v.1.15,2013-07-01 16:55:00,
2013-07-01 12:00:00,75.2,62.6,29.97,NE,55,4.0,4.0,65,0.00,,,0.00,Wunderground v.1.15,2013-07-01 17:00:00,
2013-07-01 12:05:00,75.1,62.1,29.97,East,90,5.0,5.0,64,0.00,,,0.00,Wunderground v.1.15,2013-07-01 17:05:00,
2013-07-01 12:10:00,75.0,62.0,29.97,ENE,74,5.0,7.0,64,0.00,,,0.00,Wunderground v.1.15,2013-07-01 17:10:00,
2013-07-01 12:15:00,74.8,61.8,29.97,East,86,5.0,7.0,64,0.00,,,0.00,Wunderground v.1.15,2013-07-01 17:15:00,
2013-07-01 12:20:00,75.0,62.9,29.97,ESE,117,5.0,5.0,66,0.00,,,0.00,Wunderground v.1.15,2013-07-01 17:20:00,
2013-07-01 14:40:00,76.0,62.5,29.96,ENE,75,5.0,5.0,63,0.00,,,0.00,Wunderground v.1.15,2013-07-01 19:40:00,
2013-07-01 14:45:00,76.0,63.4,29.96,East,80,5.0,5.0,65,0.00,,,0.00,Wunderground v.1.15,2013-07-01 19:45:00,
2013-07-01 14:50:00,76.5,63.9,29.97,ENE,67,3.0,3.0,65,0.00,,,0.00,Wunderground v.1.15,2013-07-01 19:50:00,
2013-07-01 14:55:00,76.9,64.2,29.96,East,87,4.0,5.0,65,0.00,,,0.00,Wunderground v.1.15,2013-07-01 19:55:00,
2013-07-01 15:00:00,76.6,62.6,29.96,ENE,60,4.0,8.0,62,0.00,,,0.00,Wunderground v.1.15,2013-07-01 20:00:00,
2013-07-01 15:05:00,76.2,62.2,29.96,ENE,69,4.0,8.0,62,0.00,,,0.00,Wunderground v.1.15,2013-07-01 20:05:00,
2013-07-01 15:10:00,75.8,62.3,29.97,ENE,71,4.0,4.0,63,0.00,,,0.00,Wunderground v.1.15,2013-07-01 20:10:00,
2013-07-01 15:15:00,75.8,61.4,29.97,NNE,19,4.0,4.0,61,0.00,,,0.00,Wunderground v.1.15,2013-07-01 20:15:00,
2013-07-01 15:20:00,75.6,61.2,29.97,East,88,3.0,3.0,61,0.00,,,0.00,Wunderground v.1.15,2013-07-01 20:20:00,
2013-07-01 15:25:00,74.8,60.4,29.97,East,79,3.0,3.0,61,0.00,,,0.00,Wunderground v.1.15,2013-07-01 20:25:00,
2013-07-01 15:30:00,74.3,60.4,29.97,ESE,106,4.0,4.0,62,0.00,,,0.00,Wunderground v.1.15,2013-07-01 20:30:00,
2013-07-01 15:35:00,74.0,60.6,29.97,East,94,4.0,5.0,63,0.00,,,0.00,Wunderground v.1.15,2013-07-01 20:35:00,
2013-07-01 15:40:00,74.0,60.6,29.97,ESE,116,4.0,4.0,63,0.00,,,0.00,Wunderground v.1.15,2013-07-01 20:40:00,
2013-07-01 15:45:00,73.8,60.0,29.97,ENE,70,5.0,5.0,62,0.00,,,0.00,Wunderground v.1.15,2013-07-01 20:45:00,
2013-07-01 15:50:00,73.8,60.0,29.96,NE,38,4.0,4.0,62,0.00,,,0.00,Wunderground v.1.15,2013-07-01 20:50:00,
2013-07-01 15:55:00,73.8,60.4,29.96,ENE,77,3.0,4.0,63,0.00,,,0.00,Wunderground v.1.15,2013-07-01 20:55:00,
2013-07-01 16:00:00,73.8,60.9,29.96,North,355,2.0,4.0,64,0.00,,,0.00,Wunderground v.1.15,2013-07-01 21:00:00,
2013-07-01 16:05:00,73.8,60.4,29.96,ENE,61,3.0,4.0,63,0.00,,,0.00,Wunderground v.1.15,2013-07-01 21:05:00,
2013-07-01 16:10:00,73.8,60.9,29.97,NNE,22,3.0,3.0,64,0.00,,,0.00,Wunderground v.1.15,2013-07-01 21:10:00,
2013-07-01 16:15:00,73.8,60.9,29.97,NNE,26,3.0,3.0,64,0.00,,,0.00,Wunderground v.1.15,2013-07-01 21:15:00,
2013-07-01 16:20:00,73.7,60.3,29.97,NW,321,3.0,3.0,63,0.00,,,0.00,Wunderground v.1.15,2013-07-01 21:20:00,
2013-07-01 16:25:00,73.7,60.8,29.96,SE,126,3.0,3.0,64,0.00,,,0.00,Wunderground v.1.15,2013-07-01 21:25:00,
2013-07-01 16:30:00,73.9,61.4,29.96,East,91,3.0,3.0,65,0.00,,,0.00,Wunderground v.1.15,2013-07-01 21:30:00,
2013-07-01 16:35:00,74.0,61.5,29.96,South,183,3.0,3.0,65,0.00,,,0.00,Wunderground v.1.15,2013-07-01 21:35:00,
2013-07-01 16:40:00,74.1,61.6,29.96,ENE,77,3.0,3.0,65,0.00,,,0.00,Wunderground v.1.15,2013-07-01 21:40:00,
2013-07-01 16:45:00,74.4,61.9,29.96,ENE,70,3.0,3.0,65,0.00,,,0.00,Wunderground v.1.15,2013-07-01 21:45:00,
2013-07-01 16:50:00,74.3,62.2,29.96,ESE,109,3.0,8.0,66,0.00,,,0.00,Wunderground v.1.15,2013-07-01 21:50:00,
2013-07-01 16:55:00,74.2,61.7,29.96,East,86,4.0,8.0,65,0.00,,,0.00,Wunderground v.1.15,2013-07-01 21:55:00,
2013-07-01 17:00:00,74.4,62.7,29.96,East,87,3.0,3.0,67,0.00,,,0.00,Wunderground v.1.15,2013-07-01 22:00:00,
2013-07-01 17:05:00,74.5,62.0,29.96,ESE,119,3.0,3.0,65,0.00,,,0.00,Wunderground v.1.15,2013-07-01 22:05:00,
2013-07-01 17:10:00,74.3,61.8,29.96,East,94,4.0,4.0,65,0.00,,,0.00,Wunderground v.1.15,2013-07-01 22:10:00,
2013-07-01 17:15:00,74.2,62.1,29.96,East,84,4.0,4.0,66,0.00,,,0.00,Wunderground v.1.15,2013-07-01 22:15:00,
2013-07-01 17:20:00,74.2,61.7,29.96,South,186,3.0,3.0,65,0.00,,,0.00,Wunderground v.1.15,2013-07-01 22:20:00,
2013-07-01 17:25:00,74.3,62.6,29.96,East,81,3.0,5.0,67,0.00,,,0.00,Wunderground v.1.15,2013-07-01 22:25:00,
2013-07-01 17:30:00,74.4,62.3,29.96,ENE,78,3.0,3.0,66,0.00,,,0.00,Wunderground v.1.15,2013-07-01 22:30:00,
2013-07-01 17:35:00,74.4,61.9,29.96,ENE,70,4.0,4.0,65,0.00,,,0.00,Wunderground v.1.15,2013-07-01 22:35:00,
2013-07-01 17:40:00,74.3,61.8,29.96,ENE,70,4.0,4.0,65,0.00,,,0.00,Wunderground v.1.15,2013-07-01 22:40:00,
2013-07-01 17:45:00,74.3,62.2,29.96,ESE,123,4.0,12.0,66,0.00,,,0.00,Wunderground v.1.15,2013-07-01 22:45:00,
2013-07-01 17:50:00,74.1,61.6,29.97,NNE,32,4.0,4.0,65,0.00,,,0.00,Wunderground v.1.15,2013-07-01 22:50:00,
2013-07-01 17:55:00,73.5,61.0,29.97,East,84,4.0,7.0,65,0.00,,,0.00,Wunderground v.1.15,2013-07-01 22:55:00,
2013-07-01 18:00:00,73.1,61.1,29.97,ENE,69,5.0,5.0,66,0.00,,,0.00,Wunderground v.1.15,2013-07-01 23:00:00,
2013-07-01 18:05:00,72.9,60.9,29.98,East,80,5.0,5.0,66,0.00,,,0.00,Wunderground v.1.15,2013-07-01 23:05:00,
2013-07-01 18:10:00,72.6,61.4,29.98,East,84,6.0,6.0,68,0.00,,,0.00,Wunderground v.1.15,2013-07-01 23:10:00,
2013-07-01 18:15:00,72.4,62.1,29.98,East,86,7.0,7.0,70,0.00,,,0.00,Wunderground v.1.15,2013-07-01 23:15:00,
2013-07-01 18:20:00,71.3,63.0,29.98,East,84,7.0,7.0,75,0.00,,,0.00,Wunderground v.1.15,2013-07-01 23:20:00,
2013-07-01 18:25:00,69.9,63.4,29.99,ENE,70,6.0,7.0,80,0.00,,,0.00,Wunderground v.1.15,2013-07-01 23:25:00,
2013-07-01 18:30:00,69.2,63.5,29.99,East,79,5.0,5.0,82,0.00,,,0.00,Wunderground v.1.15,2013-07-01 23:30:00,
2013-07-01 18:35:00,68.8,63.8,29.99,ENE,75,5.0,5.0,84,0.00,,,0.00,Wunderground v.1.15,2013-07-01 23:35:00,
2013-07-01 18:40:00,68.3,63.9,29.99,East,86,5.0,5.0,86,0.00,,,0.00,Wunderground v.1.15,2013-07-01 23:40:00,
2013-07-01 18:45:00,68.2,64.2,29.99,East,80,5.0,5.0,87,0.00,,,0.00,Wunderground v.1.15,2013-07-01 23:45:00,
2013-07-01 18:50:00,68.0,64.3,29.99,ENE,73,3.0,3.0,88,0.00,,,0.00,Wunderground v.1.15,2013-07-01 23:50:00,
2013-07-01 18:55:00,67.9,64.5,29.99,East,79,2.0,3.0,89,0.00,,,0.00,Wunderground v.1.15,2013-07-01 23:55:00,
2013-07-01 19:00:00,67.8,64.4,29.99,ENE,78,2.0,2.0,89,0.00,,,0.00,Wunderground v.1.15,2013-07-02 00:00:00,
2013-07-01 19:05:00,67.9,64.5,29.99,East,90,2.0,3.0,89,0.00,,,0.00,Wunderground v.1.15,2013-07-02 00:05:00,
2013-07-01 19:10:00,68.0,64.6,29.99,East,80,3.0,3.0,89,0.00,,,0.00,Wunderground v.1.15,2013-07-02 00:10:00,
2013-07-01 19:15:00,68.1,64.7,29.99,East,79,3.0,3.0,89,0.00,,,0.00,Wunderground v.1.15,2013-07-02 00:15:00,
2013-07-01 19:20:00,68.2,64.8,29.99,East,85,2.0,2.0,89,0.00,,,0.00,Wunderground v.1.15,2013-07-02 00:20:00,
2013-07-01 19:25:00,68.4,64.7,29.99,ENE,73,2.0,4.0,88,0.00,,,0.00,Wunderground v.1.15,2013-07-02 00:25:00,
2013-07-01 19:30:00,68.6,64.9,29.99,East,79,2.0,2.0,88,0.00,,,0.00,Wunderground v.1.15,2013-07-02 00:30:00,
2013-07-01 19:35:00,68.7,64.7,29.99,East,94,2.0,3.0,87,0.00,,,0.00,Wunderground v.1.15,2013-07-02 00:35:00,
2013-07-01 19:40:00,68.8,64.8,29.99,East,81,2.0,2.0,87,0.00,,,0.00,Wunderground v.1.15,2013-07-02 00:40:00,
2013-07-01 19:45:00,68.9,64.9,29.99,ENE,76,2.0,2.0,87,0.00,,,0.00,Wunderground v.1.15,2013-07-02 00:45:00,
2013-07-01 19:50:00,68.9,64.5,29.99,ENE,57,3.0,4.0,86,0.00,,,0.00,Wunderground v.1.15,2013-07-02 00:50:00,
2013-07-01 19:55:00,69.0,64.3,29.99,ENE,69,3.0,4.0,85,0.00,,,0.00,Wunderground v.1.15,2013-07-02 00:55:00,
2013-07-01 20:00:00,69.1,64.4,29.99,ENE,78,3.0,3.0,85,0.00,,,0.00,Wunderground v.1.15,2013-07-02 01:00:00,
2013-07-01 20:05:00,69.1,64.4,29.99,East,82,3.0,3.0,85,0.00,,,0.00,Wunderground v.1.15,2013-07-02 01:05:00,
2013-07-01 20:10:00,69.1,64.1,29.99,East,88,2.0,3.0,84,0.00,,,0.00,Wunderground v.1.15,2013-07-02 01:10:00,
2013-07-01 20:20:00,69.0,63.6,29.99,East,80,2.0,2.0,83,0.00,,,0.00,Wunderground v.1.15,2013-07-02 01:20:00,
2013-07-01 20:25:00,68.9,63.5,29.99,East,88,2.0,2.0,83,0.00,,,0.00,Wunderground v.1.15,2013-07-02 01:25:00,
2013-07-01 20:30:00,68.8,63.4,29.99,ENE,62,2.0,4.0,83,0.00,,,0.00,Wunderground v.1.15,2013-07-02 01:30:00,
2013-07-01 20:35:00,68.7,63.3,30.00,ENE,76,2.0,4.0,83,0.00,,,0.00,Wunderground v.1.15,2013-07-02 01:35:00,
2013-07-01 20:40:00,68.7,63.3,29.99,ENE,74,2.0,2.0,83,0.00,,,0.00,Wunderground v.1.15,2013-07-02 01:40:00,
2013-07-01 20:45:00,68.6,63.6,29.99,East,84,2.0,2.0,84,0.00,,,0.00,Wunderground v.1.15,2013-07-02 01:45:00,
2013-07-01 20:50:00,68.5,63.1,30.00,East,82,1.0,1.0,83,0.00,,,0.00,Wunderground v.1.15,2013-07-02 01:50:00,
2013-07-01 20:55:00,68.6,62.9,30.00,East,98,1.0,1.0,82,0.00,,,0.00,Wunderground v.1.15,2013-07-02 01:55:00,
2013-07-01 21:00:00,68.7,62.6,30.00,East,80,1.0,1.0,81,0.00,,,0.00,Wunderground v.1.15,2013-07-02 02:00:00,
2013-07-01 21:05:00,68.8,62.0,30.00,East,81,1.0,1.0,79,0.00,,,0.00,Wunderground v.1.15,2013-07-02 02:05:00,
2013-07-01 21:10:00,68.9,61.4,30.00,ESE,113,1.0,4.0,77,0.00,,,0.00,Wunderground v.1.15,2013-07-02 02:10:00,
2013-07-01 21:15:00,69.0,60.0,30.00,ESE,103,2.0,4.0,73,0.00,,,0.00,Wunderground v.1.15,2013-07-02 02:15:00,
2013-07-01 21:20:00,69.0,58.8,30.00,East,80,2.0,3.0,70,0.00,,,0.00,Wunderground v.1.15,2013-07-02 02:20:00,
2013-07-01 21:25:00,69.1,57.7,30.00,East,101,2.0,3.0,67,0.00,,,0.00,Wunderground v.1.15,2013-07-02 02:25:00,
2013-07-01 21:30:00,69.1,57.3,30.00,East,82,2.0,3.0,66,0.00,,,0.00,Wunderground v.1.15,2013-07-02 02:30:00,
2013-07-01 21:35:00,69.1,56.8,30.00,East,82,2.0,3.0,65,0.00,,,0.00,Wunderground v.1.15,2013-07-02 02:35:00,
2013-07-01 21:40:00,69.1,58.1,30.01,East,82,1.0,1.0,68,0.00,,,0.00,Wunderground v.1.15,2013-07-02 02:40:00,
2013-07-01 21:45:00,68.9,57.5,30.00,East,82,0.0,1.0,67,0.00,,,0.00,Wunderground v.1.15,2013-07-02 02:45:00,
2013-07-01 21:50:00,68.7,58.5,30.01,East,82,0.0,0.0,70,0.00,,,0.00,Wunderground v.1.15,2013-07-02 02:50:00,
2013-07-01 21:55:00,68.5,57.9,30.01,East,82,0.0,1.0,69,0.00,,,0.00,Wunderground v.1.15,2013-07-02 02:55:00,
2013-07-01 22:00:00,68.2,58.4,30.01,East,82,0.0,0.0,71,0.00,,,0.00,Wunderground v.1.15,2013-07-02 03:00:00,
2013-07-01 22:10:00,67.9,59.3,30.01,East,82,0.0,0.0,74,0.00,,,0.00,Wunderground v.1.15,2013-07-02 03:10:00,
2013-07-01 22:15:00,67.8,60.0,30.01,East,82,0.0,0.0,76,0.00,,,0.00,Wunderground v.1.15,2013-07-02 03:15:00,
2013-07-01 22:20:00,67.8,60.3,30.01,East,82,0.0,0.0,77,0.00,,,0.00,Wunderground v.1.15,2013-07-02 03:20:00,
2013-07-01 22:25:00,67.7,60.6,30.01,East,82,0.0,0.0,78,0.00,,,0.00,Wunderground v.1.15,2013-07-02 03:25:00,
2013-07-01 22:30:00,67.6,60.9,30.01,East,82,0.0,1.0,79,0.00,,,0.00,Wunderground v.1.15,2013-07-02 03:30:00,
2013-07-01 22:35:00,67.5,60.8,30.01,East,82,1.0,1.0,79,0.00,,,0.00,Wunderground v.1.15,2013-07-02 03:35:00,
2013-07-01 22:40:00,67.5,61.1,30.01,East,82,0.0,0.0,80,0.00,,,0.00,Wunderground v.1.15,2013-07-02 03:40:00,
2013-07-01 22:45:00,67.4,61.0,30.01,East,82,0.0,0.0,80,0.00,,,0.00,Wunderground v.1.15,2013-07-02 03:45:00,